Time;durP1;ratioP1;P1;durP2;ratioP2;P2;SDS_P1;SDS_P2;PMS_P1;PMS_P2;Temp;Humidity;BMP_temperature;BMP_pressure;BME280_temperature;BME280_humidity;BME280_pressure;Samples;Min_cycle;Max_cycle;Signal;HPM_P1;HPM_P2
2021/04/12 00:00:08;;;;;;;4.32;2.15;;;;;;;16.60;36.59;102471.75;4956128;28;20069;-79
2021/04/12 00:03:11;;;;;;;2.55;1.65;;;;;;;16.64;36.52;102481.06;4954668;29;20035;-78
2021/04/12 00:05:45;;;;;;;3.45;2.08;;;;;;;16.71;36.19;102471.56;4933880;28;20036;-79
2021/04/12 00:08:39;;;;;;;3.95;1.85;;;;;;;16.27;36.85;102470.34;4954780;29;20491;-79
2021/04/12 00:11:19;;;;;;;2.92;1.55;;;;;;;16.55;36.45;102474.66;4954572;29;20035;-83
2021/04/12 00:13:55;;;;;;;4.32;1.88;;;;;;;16.45;36.68;102474.88;4955887;28;20065;-79
2021/04/12 00:16:43;;;;;;;2.63;1.45;;;;;;;16.42;36.82;102478.28;4956061;28;20580;-79
2021/04/12 00:19:29;;;;;;;3.63;1.73;;;;;;;16.17;36.69;102484.31;4954516;29;20035;-80
2021/04/12 00:22:10;;;;;;;2.25;1.60;;;;;;;16.19;37.16;102495.88;4954490;29;20061;-79
2021/04/12 00:24:50;;;;;;;3.72;1.73;;;;;;;16.35;36.79;102486.16;4970710;28;20492;-80
2021/04/12 00:27:26;;;;;;;1.52;1.25;;;;;;;16.35;36.75;102486.16;4955600;28;20039;-82
2021/04/12 00:30:19;;;;;;;3.00;1.80;;;;;;;16.39;36.86;102487.16;4954293;29;20457;-79
2021/04/12 00:33:13;;;;;;;3.25;1.75;;;;;;;16.44;36.73;102494.50;4943867;29;20035;-79
2021/04/12 00:36:00;;;;;;;5.43;2.45;;;;;;;16.55;36.51;102495.91;4954424;29;20490;-79
2021/04/12 00:38:35;;;;;;;5.30;3.30;;;;;;;16.61;36.46;102489.13;4955472;29;20386;-78
2021/04/12 00:41:21;;;;;;;4.55;3.08;;;;;;;16.55;36.82;102488.47;4955857;28;20042;-79
2021/04/12 00:43:58;;;;;;;6.60;2.83;;;;;;;16.57;36.55;102491.72;4955472;28;20509;-79
2021/04/12 00:46:56;;;;;;;3.35;2.33;;;;;;;16.56;36.69;102494.78;4955194;29;20027;-78
2021/04/12 00:49:38;;;;;;;3.83;2.05;;;;;;;16.46;36.72;102490.31;4955183;28;20027;-79
2021/04/12 00:52:28;;;;;;;2.70;1.70;;;;;;;16.50;36.91;102493.28;4955218;28;20038;-79
2021/04/12 00:55:18;;;;;;;2.63;1.52;;;;;;;16.36;36.82;102485.03;4955275;29;20039;-79
2021/04/12 00:58:01;;;;;;;;;;;;;;;16.38;36.79;102494.59;4955616;29;20042;-78
2021/04/12 01:00:32;;;;;;;3.13;1.80;;;;;;;16.70;36.09;102497.50;4954920;29;19918;-79
2021/04/12 01:03:11;;;;;;;2.03;1.40;;;;;;;16.65;36.03;102493.72;4955114;28;20059;-82
2021/04/12 01:05:49;;;;;;;3.17;1.45;;;;;;;16.70;36.07;102501.13;4953727;29;20031;-79
2021/04/12 01:08:55;;;;;;;3.05;1.50;;;;;;;16.40;36.58;102497.09;4954902;28;20368;-79
2021/04/12 01:11:46;;;;;;;2.53;1.42;;;;;;;16.17;37.12;102503.63;4954719;29;20055;-79
2021/04/12 01:14:34;;;;;;;2.47;1.40;;;;;;;16.06;37.00;102498.34;4937598;29;20070;-78
2021/04/12 01:17:36;;;;;;;1.80;1.13;;;;;;;16.13;36.86;102499.88;4954707;29;20038;-79
2021/04/12 01:20:26;;;;;;;1.83;1.27;;;;;;;16.10;36.88;102490.28;4954808;28;20031;-79
2021/04/12 01:23:29;;;;;;;1.73;1.27;;;;;;;15.93;37.16;102487.31;4954751;29;20028;-79
2021/04/12 01:26:32;;;;;;;26.55;3.05;;;;;;;16.05;36.89;102493.94;4953258;29;20118;-78
2021/04/12 01:28:58;;;;;;;3.63;1.60;;;;;;;15.94;36.88;102487.00;4954581;29;20031;-79
2021/04/12 01:31:37;;;;;;;3.20;1.83;;;;;;;15.76;36.66;102491.50;4954392;28;20034;-79
2021/04/12 01:34:32;;;;;;;2.28;1.20;;;;;;;15.74;36.82;102495.69;4954482;28;20026;-80
2021/04/12 01:37:19;;;;;;;1.98;1.52;;;;;;;15.70;36.90;102494.66;4954390;28;20062;-79
2021/04/12 01:40:01;;;;;;;2.60;1.45;;;;;;;15.67;36.66;102500.78;4954523;29;20034;-81
2021/04/12 01:42:32;;;;;;;2.92;1.48;;;;;;;15.63;36.89;102497.81;4953037;29;20027;-79
2021/04/12 01:45:16;;;;;;;3.05;1.42;;;;;;;15.50;36.82;102496.66;4954278;28;20478;-79
2021/04/12 01:48:07;;;;;;;2.70;1.58;;;;;;;15.46;36.89;102498.38;4954134;28;20153;-78
2021/04/12 01:50:50;;;;;;;2.17;1.33;;;;;;;15.34;36.89;102488.94;4952064;28;20490;-81
2021/04/12 01:53:30;;;;;;;2.15;1.52;;;;;;;15.37;36.90;102493.88;4953425;28;20508;-78
2021/04/12 01:55:59;;;;;;;2.28;1.20;;;;;;;15.35;36.77;102494.19;4953475;28;20134;-79
2021/04/12 01:58:30;;;;;;;4.28;1.30;;;;;;;15.34;36.89;102494.47;4954174;29;20035;-80
2021/04/12 02:01:16;;;;;;;4.05;1.55;;;;;;;15.24;36.78;102496.28;4953806;28;20055;-79
2021/04/12 02:04:01;;;;;;;2.15;1.27;;;;;;;15.24;36.78;102498.22;4953569;28;20038;-79
2021/04/12 02:06:32;;;;;;;3.38;1.27;;;;;;;15.22;36.83;102490.28;4953801;28;20482;-80
2021/04/12 02:09:12;;;;;;;3.33;1.70;;;;;;;15.11;36.86;102501.75;4952147;28;20031;-79
2021/04/12 02:12:13;;;;;;;1.95;1.55;;;;;;;15.03;36.89;102505.19;4952363;29;20035;-79
2021/04/12 02:14:43;;;;;;;1.75;1.55;;;;;;;15.07;36.76;102501.53;4946781;29;20490;-79
2021/04/12 02:17:32;;;;;;;1.90;1.40;;;;;;;15.03;36.82;102503.25;4952526;29;20063;-79
2021/04/12 02:20:36;;;;;;;1.85;1.23;;;;;;;14.92;37.10;102505.34;4953652;29;20035;-79
2021/04/12 02:23:23;;;;;;;2.60;1.80;;;;;;;15.00;36.73;102509.38;4950654;28;20545;-78
2021/04/12 02:26:04;;;;;;;4.90;1.40;;;;;;;14.87;37.12;102505.44;4953595;29;20031;-79
2021/04/12 02:28:50;;;;;;;2.22;1.52;;;;;;;14.86;37.08;102514.81;4953542;28;20058;-78
2021/04/12 02:31:38;;;;;;;2.20;1.67;;;;;;;14.84;36.89;102516.22;4953431;28;20390;-79
2021/04/12 02:34:20;;;;;;;4.50;1.80;;;;;;;14.85;37.00;102518.69;4952230;28;20035;-79
2021/04/12 02:36:55;;;;;;;2.38;1.52;;;;;;;14.73;37.28;102518.31;4953342;28;20103;-81
2021/04/12 02:39:38;;;;;;;5.18;1.58;;;;;;;14.83;37.06;102520.91;4953381;28;20074;-79
2021/04/12 02:42:39;;;;;;;2.80;1.73;;;;;;;14.84;37.01;102521.72;4953173;28;20034;-79
2021/04/12 02:45:16;;;;;;;3.95;1.95;;;;;;;14.91;37.08;102519.44;4952086;28;20545;-79
2021/04/12 02:48:27;;;;;;;5.03;1.80;;;;;;;14.83;37.12;102520.09;4951946;28;20027;-78
2021/04/12 02:50:58;;;;;;;3.35;1.70;;;;;;;14.82;36.88;102518.47;4935353;29;20130;-79
2021/04/12 02:54:01;;;;;;;4.18;1.80;;;;;;;14.77;37.04;102524.84;4953184;28;20390;-79
2021/04/12 02:56:59;;;;;;;3.45;2.15;;;;;;;14.71;37.02;102520.53;4951874;28;20429;-81
2021/04/12 02:59:43;;;;;;;4.80;1.92;;;;;;;14.76;37.04;102528.72;4953025;28;20063;-79
2021/04/12 03:02:48;;;;;;;3.40;2.00;;;;;;;14.65;37.08;102522.53;4952035;28;20525;-79
2021/04/12 03:06:02;;;;;;;1.95;1.58;;;;;;;14.49;37.37;102521.13;4953038;28;20174;-78
2021/04/12 03:08:40;;;;;;;3.08;1.77;;;;;;;14.49;37.25;102517.56;4951466;28;20119;-80
2021/04/12 03:11:30;;;;;;;2.75;1.50;;;;;;;14.49;37.15;102526.63;4952924;29;20050;-79
2021/04/12 03:14:41;;;;;;;2.92;1.90;;;;;;;14.41;37.41;102519.81;4953096;28;20027;-78
2021/04/12 03:17:32;;;;;;;3.95;2.10;;;;;;;14.43;37.16;102522.28;4953069;28;20427;-79
2021/04/12 03:20:23;;;;;;;3.13;1.75;;;;;;;14.38;37.46;102523.19;4954440;28;20087;-79
2021/04/12 03:22:58;;;;;;;4.65;1.95;;;;;;;14.33;37.28;102530.66;4957050;28;20035;-78
2021/04/12 03:25:33;;;;;;;2.33;1.63;;;;;;;14.28;37.52;102525.22;4956826;28;20031;-78
2021/04/12 03:28:20;;;;;;;7.45;2.25;;;;;;;14.25;37.47;102529.38;4955753;28;20028;-79
2021/04/12 03:31:03;;;;;;;4.05;2.25;;;;;;;14.29;37.54;102530.44;4956623;29;20042;-79
2021/04/12 03:33:32;;;;;;;2.78;2.22;;;;;;;14.24;37.34;102526.94;4955612;28;20118;-79
2021/04/12 03:36:19;;;;;;;3.22;2.20;;;;;;;14.19;37.65;102535.25;4956780;29;20027;-79
2021/04/12 03:38:51;;;;;;;3.28;2.25;;;;;;;14.20;37.47;102532.19;4955402;29;20519;-79
2021/04/12 03:41:26;;;;;;;4.30;2.00;;;;;;;14.20;37.43;102534.13;4955341;29;20019;-78
2021/04/12 03:44:10;;;;;;;3.95;2.28;;;;;;;14.19;37.55;102530.56;4956650;28;20087;-79
2021/04/12 03:47:02;;;;;;;4.22;2.30;;;;;;;14.05;37.63;102530.44;4956374;29;20023;-78
2021/04/12 03:50:00;;;;;;;3.75;2.35;;;;;;;14.11;37.45;102543.03;4954110;28;20038;-81
2021/04/12 03:52:59;;;;;;;3.50;2.40;;;;;;;14.08;37.41;102540.06;4956569;28;20039;-79
2021/04/12 03:55:34;;;;;;;4.55;2.35;;;;;;;14.01;37.46;102540.41;4956444;29;20418;-78
2021/04/12 03:58:39;;;;;;;3.60;2.00;;;;;;;13.99;37.52;102547.31;4955073;28;20118;-78
2021/04/12 04:01:21;;;;;;;4.10;2.50;;;;;;;13.94;37.60;102539.13;4956029;29;20039;-79
2021/04/12 04:04:24;;;;;;;2.85;2.08;;;;;;;13.88;37.74;102541.09;4956372;28;20564;-78
2021/04/12 04:07:35;;;;;;;4.43;2.38;;;;;;;13.81;37.75;102543.38;4956229;29;20104;-78
2021/04/12 04:10:33;;;;;;;4.82;3.03;;;;;;;13.78;37.99;102550.28;4955987;29;20027;-79
2021/04/12 04:13:16;;;;;;;4.03;2.42;;;;;;;13.80;37.85;102544.47;4954763;28;20028;-79
2021/04/12 04:16:04;;;;;;;10.73;3.17;;;;;;;13.71;37.60;102549.78;4954757;29;20116;-79
2021/04/12 04:18:49;;;;;;;4.63;2.22;;;;;;;13.65;37.82;102553.69;4954507;29;20062;-78
2021/04/12 04:21:18;;;;;;;4.15;2.20;;;;;;;13.67;37.66;102554.22;4956133;28;20031;-81
2021/04/12 04:24:20;;;;;;;2.75;1.95;;;;;;;13.67;37.82;102558.91;4955784;29;20367;-79
2021/04/12 04:27:31;;;;;;;4.45;2.45;;;;;;;13.65;37.69;102553.69;4955755;29;20034;-79
2021/04/12 04:30:38;;;;;;;3.58;2.28;;;;;;;13.67;37.61;102567.13;4955376;28;20038;-78
2021/04/12 04:33:22;;;;;;;5.65;3.10;;;;;;;13.60;37.69;102568.31;4896163;29;20538;-82
2021/04/12 04:36:21;;;;;;;4.72;2.28;;;;;;;13.58;38.01;102559.53;4896368;29;20587;-82
2021/04/12 04:39:05;;;;;;;5.10;2.30;;;;;;;13.54;38.02;102563.16;4944521;28;20074;-82
2021/04/12 04:41:57;;;;;;;3.92;2.47;;;;;;;13.65;37.58;102558.38;4954222;28;20406;-79
2021/04/12 04:44:35;;;;;;;3.95;2.50;;;;;;;13.62;37.82;102562.53;4925062;29;20047;-79
2021/04/12 04:47:16;;;;;;;4.22;2.58;;;;;;;13.72;37.64;102570.66;4955593;28;20097;-80
2021/04/12 04:50:35;;;;;;;2.85;2.10;;;;;;;13.65;38.32;102575.66;4955348;28;20035;-81
2021/04/12 04:53:31;;;;;;;4.28;2.63;;;;;;;13.63;38.29;102579.81;4914830;29;20127;-78
2021/04/12 04:56:27;;;;;;;4.97;2.80;;;;;;;13.68;38.01;102590.75;4914690;29;20040;-79
2021/04/12 04:58:55;;;;;;;4.82;2.80;;;;;;;13.64;38.04;102590.53;4954336;29;20075;-78
2021/04/12 05:01:47;;;;;;;3.45;2.53;;;;;;;13.66;38.00;102590.22;4955075;29;20083;-78
2021/04/12 05:04:46;;;;;;;7.45;3.10;;;;;;;13.48;38.59;102591.75;4955064;28;20042;-81
2021/04/12 05:07:57;;;;;;;4.55;2.65;;;;;;;13.49;38.77;102598.91;4955115;28;20090;-79
2021/04/12 05:10:56;;;;;;;5.63;3.08;;;;;;;13.63;38.19;102593.56;4938923;29;20036;-77
2021/04/12 05:13:34;;;;;;;4.35;2.80;;;;;;;13.66;38.16;102610.28;4955017;28;20039;-82
2021/04/12 05:16:18;;;;;;;4.03;2.63;;;;;;;13.67;38.19;102603.66;4953761;28;20254;-80
2021/04/12 05:19:13;;;;;;;4.32;3.05;;;;;;;13.68;38.38;102601.72;4955052;28;20031;-79
2021/04/12 05:22:16;;;;;;;7.95;4.50;;;;;;;13.63;38.63;102602.63;4953632;29;20110;-79
2021/04/12 05:24:54;;;;;;;6.50;3.60;;;;;;;13.69;38.53;102603.41;4953599;29;20027;-80
2021/04/12 05:27:37;;;;;;;4.30;3.13;;;;;;;13.56;38.84;102613.13;4954743;28;20524;-78
2021/04/12 05:30:37;;;;;;;4.40;2.85;;;;;;;13.63;38.64;102610.84;4953516;28;20509;-79
2021/04/12 05:33:08;;;;;;;5.13;3.53;;;;;;;13.62;38.60;102613.91;4954627;28;20027;-82
2021/04/12 05:35:34;;;;;;;4.50;3.20;;;;;;;13.65;38.65;102613.31;4953435;28;20065;-82
2021/04/12 05:38:28;;;;;;;4.95;3.00;;;;;;;13.67;38.50;102608.34;4954557;28;20031;-79
2021/04/12 05:41:19;;;;;;;5.60;3.63;;;;;;;13.54;38.90;102620.84;4954321;28;20402;-78
2021/04/12 05:43:54;;;;;;;7.63;4.05;;;;;;;13.60;38.72;102622.41;4949210;28;20034;-78
2021/04/12 05:46:46;;;;;;;9.32;3.47;;;;;;;13.61;38.79;102632.31;4953168;29;20391;-81
2021/04/12 05:49:35;;;;;;;5.32;3.50;;;;;;;13.71;38.59;102632.22;4954218;29;20459;-79
2021/04/12 05:52:12;;;;;;;4.63;3.25;;;;;;;13.58;39.01;102639.19;4924755;29;20709;-79
2021/04/12 05:55:08;;;;;;;4.25;3.30;;;;;;;13.79;38.70;102641.75;4953100;28;20023;-80
2021/04/12 05:57:52;;;;;;;5.57;3.03;;;;;;;13.83;38.33;102637.34;4954020;29;20046;-78
2021/04/12 06:00:38;;;;;;;4.03;2.97;;;;;;;13.90;38.55;102643.28;4952586;28;20105;-79
2021/04/12 06:03:52;;;;;;;4.82;3.33;;;;;;;13.81;38.95;102640.34;4952866;29;20035;-82
2021/04/12 06:06:42;;;;;;;4.57;2.88;;;;;;;14.00;38.57;102656.94;4902580;29;20534;-80
2021/04/12 06:09:35;;;;;;;5.60;3.53;;;;;;;13.96;38.97;102653.13;4954052;28;20031;-79
2021/04/12 06:12:27;;;;;;;7.50;3.22;;;;;;;14.01;39.20;102655.84;4953779;28;20066;-79
2021/04/12 06:15:13;;;;;;;5.15;3.13;;;;;;;13.98;39.30;102661.09;4952550;28;20028;-80
2021/04/12 06:17:52;;;;;;;5.75;3.17;;;;;;;14.15;39.04;102666.97;4953717;28;20460;-78
2021/04/12 06:20:30;;;;;;;4.90;3.35;;;;;;;14.28;38.73;102669.06;4952314;28;20528;-79
2021/04/12 06:23:34;;;;;;;5.72;3.47;;;;;;;14.21;39.16;102671.31;4953649;28;20031;-78
2021/04/12 06:26:27;;;;;;;5.47;3.17;;;;;;;14.26;39.70;102671.25;4952440;28;20055;-79
2021/04/12 06:29:17;;;;;;;6.30;3.63;;;;;;;14.28;39.52;102671.81;4953749;29;20034;-78
2021/04/12 06:31:48;;;;;;;4.88;3.55;;;;;;;14.36;39.65;102673.91;4952289;29;20573;-78
2021/04/12 06:34:41;;;;;;;4.15;3.00;;;;;;;14.33;40.11;102663.47;4952371;28;20035;-82
2021/04/12 06:37:47;;;;;;;5.93;3.60;;;;;;;14.46;39.47;102672.19;4954790;28;20047;-79
2021/04/12 06:40:16;;;;;;;9.25;4.55;;;;;;;14.66;39.28;102681.03;4955289;28;20038;-86
2021/04/12 06:43:13;;;;;;;5.65;4.07;;;;;;;14.62;39.68;102685.47;4955266;29;20031;-78
2021/04/12 06:46:30;;;;;;;6.50;4.18;;;;;;;14.69;39.55;102687.88;4943615;29;20039;-79
2021/04/12 06:49:23;;;;;;;7.90;4.15;;;;;;;14.72;39.87;102695.53;4929334;29;20035;-79
2021/04/12 06:52:07;;;;;;;6.72;3.88;;;;;;;14.82;39.93;102703.69;4953775;28;20047;-86
2021/04/12 06:55:05;;;;;;;6.80;3.90;;;;;;;14.95;39.57;102697.44;4954861;28;20058;-79
2021/04/12 06:57:42;;;;;;;6.75;4.30;;;;;;;14.89;39.96;102698.63;4955069;28;20027;-78
2021/04/12 07:00:20;;;;;;;8.63;4.63;;;;;;;15.10;39.52;102704.66;4958419;28;20493;-78
2021/04/12 07:03:07;;;;;;;5.20;3.83;;;;;;;15.11;39.96;102706.31;4959609;28;20113;-85
2021/04/12 07:05:57;;;;;;;5.28;3.83;;;;;;;15.34;39.32;102707.38;4955145;28;20031;-86
2021/04/12 07:08:50;;;;;;;6.40;3.80;;;;;;;15.26;39.86;102697.00;4955284;28;20031;-83
2021/04/12 07:11:46;;;;;;;8.43;3.70;;;;;;;15.44;39.41;102707.22;4945460;29;20406;-80
2021/04/12 07:14:45;;;;;;;5.55;3.75;;;;;;;15.31;40.09;102704.41;4938685;29;20469;-77
2021/04/12 07:17:26;;;;;;;4.80;3.35;;;;;;;15.66;39.20;102711.34;4938681;29;20027;-80
2021/04/12 07:20:17;;;;;;;5.22;3.70;;;;;;;15.66;39.31;102697.56;4938062;29;20031;-77
2021/04/12 07:23:38;;;;;;;5.18;3.45;;;;;;;15.81;39.22;102711.91;4937474;28;20633;-78
2021/04/12 07:26:22;;;;;;;4.85;3.78;;;;;;;15.76;39.55;102708.41;4936473;28;20108;-78
2021/04/12 07:28:53;;;;;;;6.28;3.72;;;;;;;15.75;39.66;102715.06;4938110;28;20039;-83
2021/04/12 07:32:04;;;;;;;6.07;4.03;;;;;;;15.74;39.57;102721.69;4936930;29;20117;-78
2021/04/12 07:35:03;;;;;;;5.25;3.40;;;;;;;15.92;39.33;102722.78;4902996;28;20044;-81
2021/04/12 07:37:47;;;;;;;7.85;4.63;;;;;;;15.75;39.49;102724.13;4935789;29;20089;-79
2021/04/12 07:40:50;;;;;;;9.48;4.63;;;;;;;16.16;38.92;102722.63;4936022;29;20501;-82
2021/04/12 07:43:40;;;;;;;7.25;3.65;;;;;;;16.25;38.75;102727.16;4936693;29;20031;-80
2021/04/12 07:46:23;;;;;;;;;;;;;;;16.17;39.25;102727.00;4938356;29;20030;-78
2021/04/12 07:49:21;;;;;;;6.15;4.43;;;;;;;16.35;38.66;102731.66;4935861;28;19923;-79
2021/04/12 07:52:08;;;;;;;6.35;4.22;;;;;;;16.48;38.40;102733.63;4933939;28;20042;-78
2021/04/12 07:54:58;;;;;;;9.30;4.65;;;;;;;16.30;38.85;102729.00;4936232;29;20482;-78
2021/04/12 07:57:27;;;;;;;;;;;;;;;16.74;38.47;102739.50;4945087;29;20024;-79
2021/04/12 08:00:25;;;;;;;12.25;5.07;;;;;;;16.87;38.21;102729.59;4944324;28;19915;-81
2021/04/12 08:03:37;;;;;;;9.07;4.93;;;;;;;16.62;38.47;102728.97;4942571;29;20035;-81
2021/04/12 08:06:11;;;;;;;10.70;4.97;;;;;;;17.19;37.43;102740.50;4952833;28;20054;-81
2021/04/12 08:08:55;;;;;;;15.00;5.18;;;;;;;17.34;37.60;102738.53;4957230;28;20030;-78
2021/04/12 08:11:58;;;;;;;6.28;4.88;;;;;;;17.17;37.10;102745.53;4957302;29;20035;-78
2021/04/12 08:15:11;;;;;;;15.18;7.32;;;;;;;17.32;36.67;102749.09;4957372;29;20033;-80
2021/04/12 08:18:10;;;;;;;13.57;6.05;;;;;;;17.55;36.48;102750.75;4948378;29;20035;-83
2021/04/12 08:21:04;;;;;;;10.00;4.13;;;;;;;17.55;36.71;102749.94;4954520;28;20034;-82
2021/04/12 08:24:08;;;;;;;31.73;9.02;;;;;;;17.46;35.66;102752.63;4942024;28;20282;-82
2021/04/12 08:27:01;;;;;;;23.95;6.13;;;;;;;17.70;35.11;102758.72;4935017;29;20028;-83
2021/04/12 08:29:54;;;;;;;53.85;12.45;;;;;;;17.79;35.16;102756.03;4936725;29;20066;-82
2021/04/12 08:32:55;;;;;;;56.47;9.55;;;;;;;17.78;34.62;102761.88;4936569;29;20506;-82
2021/04/12 08:36:05;;;;;;;56.20;11.75;;;;;;;17.66;34.25;102759.63;4951312;28;20028;-82
2021/04/12 08:38:44;;;;;;;;;;;;;;;17.65;34.75;102767.09;4953085;29;20127;-81
2021/04/12 08:41:55;;;;;;;22.90;6.78;;;;;;;17.88;34.13;102761.63;4952783;29;19918;-79
2021/04/12 08:45:02;;;;;;;16.33;4.72;;;;;;;18.07;33.76;102772.50;4931222;29;20411;-78
2021/04/12 08:48:03;;;;;;;102.90;16.00;;;;;;;18.11;33.89;102765.19;4950191;29;20031;-84
2021/04/12 08:50:49;;;;;;;46.58;10.13;;;;;;;18.37;33.54;102762.63;4954525;28;20147;-82
2021/04/12 08:53:24;;;;;;;11.88;4.20;;;;;;;18.48;33.12;102766.72;4955439;29;20474;-81
2021/04/12 08:56:28;;;;;;;28.98;8.88;;;;;;;18.58;33.05;102767.25;4955336;28;20031;-79
2021/04/12 08:59:05;;;;;;;40.45;9.32;;;;;;;18.60;33.26;102775.28;4955134;29;20035;-78
2021/04/12 09:02:12;;;;;;;23.60;6.93;;;;;;;18.92;33.04;102782.44;4956529;28;20052;-78
2021/04/12 09:04:48;;;;;;;56.58;9.95;;;;;;;18.99;32.67;102777.25;4942750;28;20383;-82
2021/04/12 09:07:38;;;;;;;31.55;7.88;;;;;;;18.93;32.90;102780.47;4956508;28;20054;-84
2021/04/12 09:10:27;;;;;;;70.00;14.25;;;;;;;19.01;32.50;102782.47;4956476;28;20030;-80
2021/04/12 09:13:41;;;;;;;49.97;9.48;;;;;;;18.93;31.99;102791.56;4956360;28;20541;-79
2021/04/12 09:16:13;;;;;;;36.28;7.28;;;;;;;18.88;32.46;102792.50;4915716;29;20478;-79
2021/04/12 09:19:07;;;;;;;7.00;2.65;;;;;;;18.52;33.44;102798.19;4898984;29;20079;-79
2021/04/12 09:21:51;;;;;;;34.47;8.18;;;;;;;19.08;32.17;102796.66;4941061;29;20039;-79
2021/04/12 09:24:36;;;;;;;17.50;5.13;;;;;;;19.19;32.55;102795.22;4956253;28;20063;-82
2021/04/12 09:27:10;;;;;;;64.05;13.57;;;;;;;19.17;32.75;102805.81;4954842;29;20027;-80
2021/04/12 09:30:11;;;;;;;29.92;6.35;;;;;;;19.31;33.13;102800.16;4954825;29;20035;-79
2021/04/12 09:32:54;;;;;;;80.10;12.52;;;;;;;19.71;32.47;102803.66;4955085;29;20035;-80
2021/04/12 09:35:40;;;;;;;55.22;12.27;;;;;;;19.70;32.21;102802.03;4956036;28;20035;-82
2021/04/12 09:38:43;;;;;;;23.58;5.57;;;;;;;20.00;32.39;102800.22;4954267;29;20045;-83
2021/04/12 09:41:27;;;;;;;4.85;1.98;;;;;;;19.97;31.94;102806.44;4955804;29;20053;-79
2021/04/12 09:44:14;;;;;;;102.72;18.27;;;;;;;19.89;32.13;102799.75;4955923;28;20027;-79
2021/04/12 09:46:51;;;;;;;32.15;6.85;;;;;;;19.94;31.82;102807.91;4954062;28;20478;-79
2021/04/12 09:49:45;;;;;;;22.92;6.22;;;;;;;19.81;31.75;102803.34;4954389;29;20035;-78
2021/04/12 09:52:42;;;;;;;35.20;8.82;;;;;;;20.08;31.73;102809.69;4955835;29;20031;-79
2021/04/12 09:55:59;;;;;;;23.67;4.70;;;;;;;20.02;31.54;102811.00;4933228;28;20082;-80
2021/04/12 09:59:02;;;;;;;26.95;6.97;;;;;;;20.18;31.75;102817.69;4922464;29;20089;-81
2021/04/12 10:02:04;;;;;;;37.42;7.32;;;;;;;20.10;31.66;102811.00;4955397;29;20047;-80
2021/04/12 10:04:51;;;;;;;23.92;7.10;;;;;;;20.43;31.45;102816.00;4954241;29;20066;-80
2021/04/12 10:07:35;;;;;;;12.40;4.45;;;;;;;20.61;31.44;102800.94;4954044;29;20035;-79
2021/04/12 10:10:13;;;;;;;21.75;4.93;;;;;;;20.64;31.62;102807.81;4955226;29;20502;-78
2021/04/12 10:13:00;;;;;;;10.75;3.42;;;;;;;20.55;31.11;102809.78;4953931;29;20571;-79
2021/04/12 10:15:31;;;;;;;43.90;13.18;;;;;;;20.59;31.19;102810.78;4953862;28;20043;-80
2021/04/12 10:18:20;;;;;;;31.90;10.15;;;;;;;20.64;31.75;102808.63;4955280;28;20437;-79
2021/04/12 10:20:51;;;;;;;19.27;5.22;;;;;;;20.93;31.28;102816.22;4955219;28;20046;-78
2021/04/12 10:23:34;;;;;;;41.85;10.65;;;;;;;20.84;31.28;102817.38;4955268;28;20505;-79
2021/04/12 10:26:08;;;;;;;45.60;10.82;;;;;;;20.93;31.25;102813.44;4953919;29;20094;-80
2021/04/12 10:28:49;;;;;;;27.90;6.78;;;;;;;21.10;31.01;102820.06;4953498;28;20442;-83
2021/04/12 10:31:38;;;;;;;11.48;4.13;;;;;;;21.12;30.20;102813.00;4955378;28;20035;-83
2021/04/12 10:34:21;;;;;;;15.18;3.67;;;;;;;21.15;30.65;102817.88;4955092;28;20093;-78
2021/04/12 10:36:54;;;;;;;35.20;8.63;;;;;;;21.34;30.32;102814.72;4953693;29;20027;-82
2021/04/12 10:39:45;;;;;;;23.73;5.65;;;;;;;20.83;31.06;102824.91;4953565;29;20031;-81
2021/04/12 10:42:33;;;;;;;32.95;9.00;;;;;;;21.06;30.64;102823.50;4936217;28;20466;-79
2021/04/12 10:45:10;;;;;;;15.70;6.45;;;;;;;21.26;30.11;102821.13;4954503;28;20035;-79
2021/04/12 10:47:41;;;;;;;21.02;6.53;;;;;;;21.37;30.02;102822.38;4955041;28;20098;-78
2021/04/12 10:50:35;;;;;;;8.07;3.00;;;;;;;21.02;29.70;102821.72;4944331;28;20122;-82
2021/04/12 10:53:29;;;;;;;7.15;3.15;;;;;;;21.34;29.76;102825.84;4964276;28;20046;-83
2021/04/12 10:56:01;;;;;;;26.83;6.35;;;;;;;21.47;29.14;102815.63;4972298;28;20041;-79
2021/04/12 10:58:49;;;;;;;20.75;8.13;;;;;;;21.28;29.66;102824.41;4973270;28;20027;-82
2021/04/12 11:01:50;;;;;;;81.55;17.35;;;;;;;21.44;29.75;102828.22;4973935;28;20468;-80
2021/04/12 11:04:37;;;;;;;33.38;8.15;;;;;;;21.52;29.69;102832.91;4973218;28;20070;-82
2021/04/12 11:07:17;;;;;;;8.18;5.05;;;;;;;21.28;29.33;102832.72;4973805;28;20034;-81
2021/04/12 11:10:06;;;;;;;34.97;8.90;;;;;;;21.12;29.51;102834.44;4972634;28;20098;-79
2021/04/12 11:12:57;;;;;;;9.52;5.22;;;;;;;21.19;29.25;102829.16;4973546;28;20031;-79
2021/04/12 11:15:31;;;;;;;10.25;4.97;;;;;;;21.27;29.42;102823.59;4973481;28;20031;-80
2021/04/12 11:18:19;;;;;;;10.65;5.90;;;;;;;21.31;29.64;102832.06;4973857;28;20486;-82
2021/04/12 11:21:19;;;;;;;11.73;5.45;;;;;;;21.46;29.48;102831.50;4973137;28;20039;-83
2021/04/12 11:23:51;;;;;;;49.60;16.20;;;;;;;21.44;29.74;102824.63;4973819;28;20038;-83
2021/04/12 11:26:34;;;;;;;16.65;6.60;;;;;;;21.66;29.58;102837.41;4973671;28;20078;-82
2021/04/12 11:29:15;;;;;;;19.25;6.15;;;;;;;21.79;29.51;102837.16;4950425;28;20039;-79
2021/04/12 11:31:59;;;;;;;8.80;4.72;;;;;;;21.76;29.52;102837.00;4941171;29;20106;-78
2021/04/12 11:34:46;;;;;;;24.33;7.82;;;;;;;21.50;29.58;102832.44;4945554;28;20047;-79
2021/04/12 11:37:25;;;;;;;9.75;5.22;;;;;;;21.40;29.73;102829.25;4953203;29;20122;-80
2021/04/12 11:40:16;;;;;;;18.00;7.55;;;;;;;20.95;29.88;102835.34;4954653;28;20402;-81
2021/04/12 11:42:49;;;;;;;8.57;4.93;;;;;;;20.76;30.24;102827.38;4958114;28;20027;-79
2021/04/12 11:45:28;;;;;;;7.93;5.70;;;;;;;20.73;30.65;102830.84;4958013;28;20035;-81
2021/04/12 11:48:05;;;;;;;11.00;6.10;;;;;;;20.75;30.45;102831.31;4958041;28;20051;-82
2021/04/12 11:50:33;;;;;;;22.65;7.65;;;;;;;20.58;30.63;102831.38;4957789;28;20187;-79
2021/04/12 11:53:06;;;;;;;21.20;13.15;;;;;;;20.67;30.50;102834.94;4956043;28;20559;-79
2021/04/12 11:55:54;;;;;;;24.58;16.90;;;;;;;20.58;30.51;102834.16;4956179;28;20034;-80
2021/04/12 11:58:35;;;;;;;13.05;8.00;;;;;;;20.62;30.86;102833.13;4956043;28;20035;-79
2021/04/12 12:01:11;;;;;;;28.48;11.77;;;;;;;20.75;30.73;102834.91;4939145;29;20406;-82
2021/04/12 12:03:54;;;;;;;13.65;6.53;;;;;;;20.93;30.24;102840.38;4956470;28;20020;-79
2021/04/12 12:06:44;;;;;;;16.90;7.00;;;;;;;20.89;30.36;102825.53;4956918;28;20132;-78
2021/04/12 12:09:24;;;;;;;;;;;;;;;21.20;30.44;102819.66;4958088;29;20063;-82
2021/04/12 12:12:02;;;;;;;14.73;10.82;;;;;;;20.89;30.46;102820.78;4957627;28;19915;-78
2021/04/12 12:14:58;;;;;;;23.55;15.60;;;;;;;21.20;29.77;102814.09;4956240;29;20035;-81
2021/04/12 12:17:27;;;;;;;26.25;17.15;;;;;;;21.41;30.06;102825.31;4957210;28;20031;-80
2021/04/12 12:20:04;;;;;;;7.40;5.40;;;;;;;21.37;29.86;102825.16;4956158;29;20035;-82
2021/04/12 12:22:51;;;;;;;32.53;8.68;;;;;;;21.28;30.15;102824.41;4957682;28;20043;-82
2021/04/12 12:25:41;;;;;;;10.68;5.78;;;;;;;21.41;29.73;102826.13;4957391;28;20027;-78
2021/04/12 12:28:18;;;;;;;;;;;;;;;21.13;30.23;102824.94;4957678;29;20474;-78
2021/04/12 12:31:06;;;;;;;8.93;6.07;;;;;;;21.36;30.05;102825.50;4956824;29;20262;-79
2021/04/12 12:33:39;;;;;;;11.90;5.75;;;;;;;21.62;29.48;102822.56;4956022;29;20059;-82
2021/04/12 12:36:33;;;;;;;11.70;5.65;;;;;;;21.72;29.53;102828.53;4957169;28;20094;-78
2021/04/12 12:39:11;;;;;;;13.90;5.75;;;;;;;21.43;29.61;102834.94;4938312;28;20036;-78
2021/04/12 12:41:45;;;;;;;9.85;5.50;;;;;;;21.28;29.09;102832.72;4957002;29;20027;-78
2021/04/12 12:44:14;;;;;;;9.60;5.53;;;;;;;21.55;29.22;102831.44;4956947;28;20024;-78
2021/04/12 12:46:42;;;;;;;8.45;6.35;;;;;;;21.35;29.49;102841.38;4956884;28;20129;-78
2021/04/12 12:49:19;;;;;;;10.60;5.93;;;;;;;21.37;29.32;102836.28;4945759;28;20078;-79
2021/04/12 12:51:53;;;;;;;10.65;6.53;;;;;;;21.45;29.64;102832.63;4938238;28;20486;-81
2021/04/12 12:54:21;;;;;;;15.00;6.78;;;;;;;21.11;29.79;102836.41;4940553;28;20089;-78
2021/04/12 12:56:49;;;;;;;8.15;5.53;;;;;;;21.17;29.41;102842.59;4942367;28;20089;-82